MMPR/PVR METAR and TAF weather

Enter ICAO airport designator
Station Type Date Time Source
MMPR METAR 2019/06/19 05:47 UTC NOAA

MMPR 190547Z 00000KT 12SM FEW020 SCT130 28/23 A2995 RMK SLP142 52016 921 8/470


Station Type Date Time Source
MMPR Decoded METAR 2019/06/19 05:47 UTC NOAA

Puerto Vallarta / Lic, Mexico (MMPR) 20-41N 105-15W
Jun 19, 2019 - 01:47 AM EDT / 2019.06.19 0547 UTC
Wind: Calm:0
Visibility: 12 mile(s):0
Sky conditions: partly cloudy
Temperature: 82 F (28 C)
Dew Point: 73 F (23 C)
Relative Humidity: 74%
Pressure (altimeter): 29.95 in. Hg (1014 hPa)
Pressure tendency: 0.05 inches (1.6 hPa) higher than three hours ago
ob: MMPR 190547Z 00000KT 12SM FEW020 SCT130 28/23 A2995 RMK SLP142 52016 921 8/470
cycle: 6

Station Type Date Time Source
MMPR TAF 2019/06/19 06:34 UTC NOAA

TAF MMPR 190428Z 1906/2012 34005KT P6SM BKN020 BKN120 TX32/1922Z TN26/1912Z
BECMG 1913/1914 SCT020
FM191800 23012KT P6SM SCT030 BKN120 BKN250
FM200600 34005KT P6SM SCT020 BKN100
TEMPO 2007/2011 BKN020

Example: see airport list